地図

経路データ

SID SEASON NUMBER BASIN SUBBASIN NAME ISO_TIME NATURE LAT LON WMO_WIND WMO_PRES WMO_AGENCY TRACK_TYPE DIST2LAND LANDFALL IFLAG USA_AGENCY USA_ATCF_ID USA_LAT USA_LON USA_RECORD USA_STATUS USA_WIND USA_PRES USA_SSHS USA_R34_NE USA_R34_SE USA_R34_SW USA_R34_NW USA_R50_NE USA_R50_SE USA_R50_SW USA_R50_NW USA_R64_NE USA_R64_SE USA_R64_SW USA_R64_NW USA_POCI USA_ROCI USA_RMW USA_EYE TOKYO_LAT TOKYO_LON TOKYO_GRADE TOKYO_WIND TOKYO_PRES TOKYO_R50_DIR TOKYO_R50_LONG TOKYO_R50_SHORT TOKYO_R30_DIR TOKYO_R30_LONG TOKYO_R30_SHORT TOKYO_LAND CMA_LAT CMA_LON CMA_CAT CMA_WIND CMA_PRES HKO_LAT HKO_LON HKO_CAT HKO_WIND HKO_PRES NEWDELHI_LAT NEWDELHI_LON NEWDELHI_GRADE NEWDELHI_WIND NEWDELHI_PRES NEWDELHI_CI NEWDELHI_DP NEWDELHI_POCI REUNION_LAT REUNION_LON REUNION_TYPE REUNION_WIND REUNION_PRES REUNION_TNUM REUNION_CI REUNION_RMW REUNION_R34_NE REUNION_R34_SE REUNION_R34_SW REUNION_R34_NW REUNION_R50_NE REUNION_R50_SE REUNION_R50_SW REUNION_R50_NW REUNION_R64_NE REUNION_R64_SE REUNION_R64_SW REUNION_R64_NW BOM_LAT BOM_LON BOM_TYPE BOM_WIND BOM_PRES BOM_TNUM BOM_CI BOM_RMW BOM_R34_NE BOM_R34_SE BOM_R34_SW BOM_R34_NW BOM_R50_NE BOM_R50_SE BOM_R50_SW BOM_R50_NW BOM_R64_NE BOM_R64_SE BOM_R64_SW BOM_R64_NW BOM_ROCI BOM_POCI BOM_EYE BOM_POS_METHOD BOM_PRES_METHOD NADI_LAT NADI_LON NADI_CAT NADI_WIND NADI_PRES WELLINGTON_LAT WELLINGTON_LON WELLINGTON_WIND WELLINGTON_PRES DS824_LAT DS824_LON DS824_STAGE DS824_WIND DS824_PRES TD9636_LAT TD9636_LON TD9636_STAGE TD9636_WIND TD9636_PRES TD9635_LAT TD9635_LON TD9635_WIND TD9635_PRES TD9635_ROCI NEUMANN_LAT NEUMANN_LON NEUMANN_CLASS NEUMANN_WIND NEUMANN_PRES MLC_LAT MLC_LON MLC_CLASS MLC_WIND MLC_PRES USA_GUST BOM_GUST BOM_GUST_PER REUNION_GUST REUNION_GUST_PER USA_SEAHGT USA_SEARAD_NE USA_SEARAD_SE USA_SEARAD_SW USA_SEARAD_NW STORM_SPEED STORM_DIR
1993270N07153 1993 73 WP MM ED 1993-09-27 06:00:00 NR 7.00000 152.900 main 1109 1109 O_____________ jtwc_wp WP251993 7.00000 152.900 15 -1 13 317
1993270N07153 1993 73 WP MM ED 1993-09-27 09:00:00 NR 7.46765 152.458 main 1156 1155 P_____________ WP251993 7.46765 152.458 15 -1 12 319
1993270N07153 1993 73 WP MM ED 1993-09-27 12:00:00 NR 7.90000 152.100 main 1195 1195 O_____________ jtwc_wp WP251993 7.90000 152.100 15 -1 10 324
1993270N07153 1993 73 WP MM ED 1993-09-27 15:00:00 NR 8.27241 151.877 main 1237 1236 P_____________ WP251993 8.27241 151.877 15 -1 8 331
1993270N07153 1993 73 WP MM ED 1993-09-27 18:00:00 NR 8.60000 151.700 main 1269 1269 O_____________ jtwc_wp WP251993 8.60000 151.700 15 -1 8 328
1993270N07153 1993 73 WP MM ED 1993-09-27 21:00:00 NR 8.91494 151.480 main 1301 1301 P_____________ WP251993 8.91494 151.480 15 -1 8 321
1993270N07153 1993 73 WP MM ED 1993-09-28 00:00:00 NR 9.20000 151.200 main 1333 1331 O_____________ jtwc_wp WP251993 9.20000 151.200 15 -1 9 309
1993270N07153 1993 73 WP MM ED 1993-09-28 03:00:00 NR 9.46509 150.800 main 1353 1350 P_____________ WP251993 9.46509 150.800 15 -1 9 302
1993270N07153 1993 73 WP MM ED 1993-09-28 06:00:00 NR 9.70000 150.400 main 1363 1360 O_____________ jtwc_wp WP251993 9.70000 150.400 15 -1 8 304
1993270N07153 1993 73 WP MM ED 1993-09-28 09:00:00 NR 9.90738 150.142 main 1377 1377 P_____________ WP251993 9.90738 150.142 15 -1 6 309
1993270N07153 1993 73 WP MM ED 1993-09-28 12:00:00 NR 10.1000 149.900 main 1394 1392 O_____________ jtwc_wp WP251993 10.1000 149.900 15 -1 7 305
1993270N07153 1993 73 WP MM ED 1993-09-28 15:00:00 NR 10.3075 149.565 main 1410 1408 P_____________ WP251993 10.3075 149.565 15 -1 8 300
1993270N07153 1993 73 WP MM ED 1993-09-28 18:00:00 NR 10.5000 149.200 main 1425 1424 O_____________ jtwc_wp WP251993 10.5000 149.200 15 -1 8 294
1993270N07153 1993 73 WP MM ED 1993-09-28 21:00:00 NR 10.6275 148.820 main 1431 1431 P_____________ WP251993 10.6275 148.820 17 -1 8 294
1993270N07153 1993 73 WP MM ED 1993-09-29 00:00:00 NR 10.8000 148.500 main 1450 1450 O_____________ jtwc_wp WP251993 10.8000 148.500 20 -1 7 316
1993270N07153 1993 73 WP MM ED 1993-09-29 03:00:00 NR 11.1274 148.335 main 1482 1482 P_____________ WP251993 11.1274 148.335 22 -1 8 337
1993270N07153 1993 73 WP MM ED 1993-09-29 06:00:00 NR 11.5000 148.200 main 1526 1526 O_____________ jtwc_wp WP251993 11.5000 148.200 25 -1 8 333
1993270N07153 1993 73 WP MM ED 1993-09-29 09:00:00 NR 11.8225 147.980 main 1558 1558 P_____________ WP251993 11.8225 147.980 25 -1 8 321
1993270N07153 1993 73 WP MM ED 1993-09-29 12:00:00 NR 12.1000 147.700 main 1591 1591 O_____________ jtwc_wp WP251993 12.1000 147.700 25 -1 8 310
1993270N07153 1993 73 WP MM ED 1993-09-29 15:00:00 NR 12.3225 147.365 main 1613 1613 P_____________ WP251993 12.3225 147.365 25 -1 8 300
1993270N07153 1993 73 WP MM ED 1993-09-29 18:00:00 NR 12.5000 147.000 main 1635 1635 O_____________ jtwc_wp WP251993 12.5000 147.000 25 -1 8 295
1993270N07153 1993 73 WP MM ED 1993-09-29 21:00:00 NR 12.6500 146.642 main 1646 1646 P_____________ WP251993 12.6500 146.642 25 -1 8 283
1993270N07153 1993 73 WP MM ED 1993-09-30 00:00:00 TS 12.6857 146.200 1008 tokyo main 1658 1658 OOOO__________ jtwc_wp WP251993 12.8000 146.300 25 -1 12.5000 146.000 2 1008 0 0 0 12.5000 146.000 1 23 1004 12.6000 146.200 TD 25 1005 7 288
1993270N07153 1993 73 WP MM ED 1993-09-30 03:00:00 TS 12.8755 145.930 main 1682 1682 PPPP__________ WP251993 12.9999 146.000 27 -1 12.7601 145.845 2 1006 0 0 12.7601 145.845 1 26 1004 12.8575 145.958 TD 25 1005 6 309
1993270N07153 1993 73 WP MM ED 1993-09-30 06:00:00 TS 13.0846 145.700 1004 tokyo main 1705 1705 OOOO__________ jtwc_wp WP251993 13.2000 145.700 30 -1 13.0000 145.700 2 1004 0 0 0 13.0000 145.700 1 29 1004 13.1000 145.700 TD 25 1005 6 311
1993270N07153 1993 73 WP MM ED 1993-09-30 09:00:00 TS 13.2718 145.467 main 1729 1729 PPPP__________ WP251993 13.3575 145.350 32 -1 13.2073 145.552 2 1002 0 0 13.2073 145.552 1 29 1002 13.3150 145.415 TD 27 1002 6 306
1993270N07153 1993 73 WP MM ED 1993-09-30 12:00:00 TS 13.4500 145.175 1000 tokyo main 1754 1743 OOOO__________ jtwc_wp WP251993 13.5000 145.000 35 0 13.4000 145.300 2 1000 0 0 0 13.4000 145.300 1 29 1000 13.5000 145.100 TD 30 1000 7 299
1993270N07153 1993 73 WP MM ED 1993-09-30 15:00:00 TS 13.6325 144.794 main 1770 1770 PPPP__________ WP251993 13.6573 144.715 37 -1 13.6076 144.845 2 999 0 0 13.6076 144.845 1 29 999 13.6574 144.772 TD 32 997 9 294
1993270N07153 1993 73 WP MM ED 1993-09-30 18:00:00 TS 13.8000 144.350 35 998 tokyo main 1797 1797 OOOO__________ jtwc_wp WP251993 13.8000 144.400 40 0 13.8000 144.300 3 35 998 0 9 40 40 0 13.8000 144.300 1 29 998 13.8000 144.400 TS 35 995 10 290
1993270N07153 1993 73 WP MM ED 1993-09-30 21:00:00 TS 13.9544 143.871 main 1828 1828 PPPP__________ WP251993 13.9075 143.980 45 -1 13.9726 143.770 3 37 995 0 9 45 45 13.9726 143.770 1 33 996 13.9650 143.965 TS 40 992 10 287
1993270N07153 1993 73 WP MM ED 1993-10-01 00:00:00 TS 14.0750 143.400 40 992 tokyo main 1848 1836 OOOO__________ jtwc_wp WP251993 14.0000 143.500 50 0 14.1000 143.300 3 40 992 0 9 50 50 0 14.1000 143.300 2 38 995 14.1000 143.500 TS 45 990 9 283
1993270N07153 1993 73 WP MM ED 1993-10-01 03:00:00 TS 14.1487 142.996 main 1836 1835 PPPP__________ WP251993 14.1000 142.992 52 -1 14.1648 142.977 3 42 991 0 9 55 55 14.1648 142.977 2 38 995 14.1650 143.035 TS 45 990 8 279
1993270N07153 1993 73 WP MM ED 1993-10-01 06:00:00 TS 14.2000 142.625 45 990 tokyo main 1835 1822 OOOO__________ jtwc_wp WP251993 14.2000 142.500 55 0 14.2000 142.700 3 45 990 0 9 60 60 0 14.2000 142.700 2 38 995 14.2000 142.600 TS 45 990 7 278
1993270N07153 1993 73 WP MM ED 1993-10-01 09:00:00 TS 14.2512 142.257 main 1828 1785 PPPP__________ WP251993 14.2999 142.077 60 -1 14.2350 142.357 3 50 985 0 9 80 80 14.2350 142.357 2 43 992 14.2349 142.235 TS 47 987 7 280
1993270N07153 1993 73 WP MM ED 1993-10-01 12:00:00 TS 14.3250 141.900 55 980 tokyo main 1785 1756 OOOO__________ jtwc_wp WP251993 14.4000 141.700 65 1 14.3000 142.000 4 55 980 9 30 30 9 100 100 0 14.3000 142.000 3 48 990 14.3000 141.900 STS 50 985 7 286
1993270N07153 1993 73 WP MM ED 1993-10-01 15:00:00 TS 14.4418 141.554 main 1756 1718 PPPP__________ WP251993 14.4999 141.350 67 -1 14.4274 141.657 4 57 977 9 35 35 9 125 125 14.4199 141.657 3 53 985 14.4199 141.550 STS 52 982 7 292
1993270N07153 1993 73 WP MM ED 1993-10-01 18:00:00 TS 14.6000 141.200 60 975 tokyo main 1718 1680 OOOO__________ jtwc_wp WP251993 14.6000 141.000 70 1 14.6000 141.300 4 60 975 9 40 40 9 150 150 0 14.6000 141.300 3 58 980 14.6000 141.200 STS 55 980 8 295
1993270N07153 1993 73 WP MM ED 1993-10-01 21:00:00 TS 14.7812 140.816 main 1680 1641 PPPP__________ WP251993 14.6700 140.607 75 -1 14.7925 140.900 4 65 970 9 50 50 9 175 175 14.8350 140.900 3 63 977 14.8274 140.857 STS 55 977 9 298
1993270N07153 1993 73 WP MM ED 1993-10-02 00:00:00 TS 15.0000 140.425 70 965 tokyo main 1641 1613 OOOO__________ jtwc_wp WP251993 14.8000 140.200 80 1 15.0000 140.500 5 70 965 9 60 60 9 200 200 0 15.1000 140.500 4 68 975 15.1000 140.500 STS 55 975 9 303
1993270N07153 1993 73 WP MM ED 1993-10-02 03:00:00 TS 15.2455 140.065 main 1613 1577 PPPP__________ WP251993 15.0699 139.808 85 -1 15.1772 140.172 5 70 965 9 60 60 9 200 200 15.3423 140.165 4 68 972 15.3924 140.115 STS 55 975 9 306
1993270N07153 1993 73 WP MM ED 1993-10-02 06:00:00 TS 15.5250 139.675 70 965 tokyo main 1577 1532 OOOO__________ jtwc_wp WP251993 15.4000 139.400 90 2 15.4000 139.800 5 70 965 9 60 60 9 200 200 0 15.6000 139.800 4 68 970 15.7000 139.700 STS 55 975 10 305
1993270N07153 1993 73 WP MM ED 1993-10-02 09:00:00 TS 15.8281 139.212 main 1532 1488 PPPP__________ WP251993 15.6925 138.957 90 -1 15.7276 139.280 5 70 965 9 60 60 9 200 200 15.8924 139.337 4 68 970 15.9998 139.272 STS 57 972 11 304
1993270N07153 1993 73 WP MM ED 1993-10-02 12:00:00 TS 16.1500 138.700 70 965 tokyo main 1491 1447 OOOO__________ jtwc_wp WP251993 16.0000 138.500 XX 90 -5 16.1000 138.700 5 70 965 9 60 60 9 200 200 0 16.2000 138.800 4 68 970 16.3000 138.800 STS 60 970 12 303
1993270N07153 1993 73 WP MM ED 1993-10-02 15:00:00 TS 16.4787 138.164 main 1450 1407 PPPP__________ WP251993 16.3499 138.050 XX 92 -5 16.4574 138.142 5 72 962 9 70 70 9 205 205 16.5001 138.200 4 72 967 16.6075 138.265 STS 60 970 12 302
1993270N07153 1993 73 WP MM ED 1993-10-02 18:00:00 TS 16.8000 137.625 75 960 tokyo main 1400 1363 OOOO__________ jtwc_wp WP251993 16.7000 137.600 XX 95 -5 16.8000 137.600 5 75 960 9 80 80 9 210 210 0 16.8000 137.600 4 77 965 16.9000 137.700 STS 60 970 12 301
1993270N07153 1993 73 WP MM ED 1993-10-02 21:00:00 TS 17.1006 137.104 main 1363 1327 PPPP__________ WP251993 17.0149 137.142 XX 97 -5 17.1149 137.077 5 75 957 9 85 85 9 210 210 17.1074 137.070 4 77 965 17.1650 137.127 STS 62 967 11 301
1993270N07153 1993 73 WP MM ED 1993-10-03 00:00:00 TS 17.3750 136.625 75 955 tokyo main 1327 1298 OOOO__________ jtwc_wp WP251993 17.3000 136.700 XX 100 -5 17.4000 136.600 5 75 955 9 90 90 9 210 210 0 17.4000 136.600 4 77 965 17.4000 136.600 T 65 965 10 301
1993270N07153 1993 73 WP MM ED 1993-10-03 03:00:00 TS 17.6198 136.204 main 1298 1271 PPPP__________ WP251993 17.5574 136.292 XX 102 -5 17.6649 136.170 5 77 952 9 95 95 9 210 210 17.6649 136.177 4 77 962 17.5923 136.177 T 65 965 9 302
1993270N07153 1993 73 WP MM ED 1993-10-03 06:00:00 TS 17.8500 135.825 80 950 tokyo main 1276 1254 OOOO__________ jtwc_wp WP251993 17.8000 135.900 XX 105 -5 17.9000 135.800 5 80 950 9 100 100 9 210 210 0 17.9000 135.800 4 77 960 17.8000 135.800 T 65 965 9 304
1993270N07153 1993 73 WP MM ED 1993-10-03 09:00:00 TS 18.0892 135.462 main 1260 1235 PPPP__________ WP251993 18.0575 135.492 XX 107 -5 18.0998 135.507 5 80 950 9 100 100 9 210 210 18.0998 135.450 4 77 960 18.0999 135.400 T 67 962 8 305
1993270N07153 1993 73 WP MM ED 1993-10-03 12:00:00 TS 18.3250 135.100 80 950 tokyo main 1235 1212 OOOO__________ jtwc_wp WP251993 18.3000 135.100 XX 110 -5 18.3000 135.200 5 80 950 9 100 100 9 210 210 0 18.3000 135.100 4 77 960 18.4000 135.000 T 70 960 9 303
1993270N07153 1993 73 WP MM ED 1993-10-03 15:00:00 TS 18.5575 134.694 main 1218 1190 PPPP__________ WP251993 18.5074 134.735 XX 112 -5 18.5501 134.758 5 80 950 9 100 100 9 210 210 18.5500 134.700 4 77 960 18.6225 134.585 T 70 960 9 301
1993270N07153 1993 73 WP MM ED 1993-10-03 18:00:00 TS 18.7750 134.300 80 950 tokyo main 1190 1166 OOOO__________ jtwc_wp WP251993 18.7000 134.400 XX 115 -5 18.8000 134.300 5 80 950 9 100 100 9 210 210 0 18.8000 134.300 4 77 960 18.8000 134.200 T 70 960 8 301
1993270N07153 1993 73 WP MM ED 1993-10-03 21:00:00 TS 18.9699 133.958 main 1171 1149 PPPP__________ WP251993 18.8999 134.085 XX 117 -5 19.0149 133.927 5 82 947 9 110 110 9 210 210 19.0149 133.935 4 82 955 18.9499 133.885 T 75 955 7 301
1993270N07153 1993 73 WP MM ED 1993-10-04 00:00:00 TS 19.1500 133.650 85 945 tokyo main 1154 1133 OOOO__________ jtwc_wp WP251993 19.1000 133.800 XX 120 -5 19.2000 133.600 5 85 945 9 120 120 9 210 210 0 19.2000 133.600 5 87 950 19.1000 133.600 T 80 950 7 302
1993270N07153 1993 73 WP MM ED 1993-10-04 03:00:00 TS 19.3306 133.340 main 1124 1118 PPPP__________ WP251993 19.3074 133.542 XX 125 -5 19.3575 133.270 5 87 940 9 125 125 9 225 225 19.3575 133.270 5 87 950 19.3000 133.278 T 87 942 6 303
1993270N07153 1993 73 WP MM ED 1993-10-04 06:00:00 TS 19.5000 133.075 90 935 tokyo main 1118 1107 OOOO__________ jtwc_wp WP251993 19.5000 133.300 XX 130 -5 19.5000 133.000 5 90 935 9 130 130 9 240 240 0 19.5000 133.000 5 87 950 19.5000 133.000 ST 95 935 5 305
1993270N07153 1993 73 WP MM ED 1993-10-04 09:00:00 TS 19.6387 132.870 main 1107 1102 PPPP__________ WP251993 19.6426 133.020 XX 135 -5 19.6349 132.820 5 92 930 9 140 140 9 250 250 19.6349 132.820 5 92 947 19.6424 132.820 ST 100 930 4 312
1993270N07153 1993 73 WP MM ED 1993-10-04 12:00:00 TS 19.8000 132.725 95 925 tokyo main 1102 1094 OOOO__________ jtwc_wp WP251993 19.8000 132.800 140 -1 19.8000 132.700 5 95 925 9 150 150 9 260 260 0 19.8000 132.700 5 97 945 19.8000 132.700 SuperT 105 925 5 328
1993270N07153 1993 73 WP MM ED 1993-10-04 15:00:00 TS 20.0294 132.606 main 1096 1096 PPPP__________ WP251993 20.0349 132.712 140 -1 20.0275 132.570 5 97 922 9 155 155 9 260 260 20.0275 132.570 5 101 940 20.0275 132.570 SuperT 97 932 5 342
1993270N07153 1993 73 WP MM ED 1993-10-04 18:00:00 TS 20.3000 132.550 100 920 tokyo main 1101 1090 OOOO__________ jtwc_wp WP251993 20.3000 132.700 140 -1 20.3000 132.500 5 100 920 9 160 160 9 260 260 0 20.3000 132.500 6 106 935 20.3000 132.500 ST 90 940 6 356
1993270N07153 1993 73 WP MM ED 1993-10-04 21:00:00 TS 20.5762 132.559 main 1107 1107 PPPP__________ WP251993 20.5425 132.678 137 -1 20.5850 132.520 5 100 917 9 155 155 9 260 260 20.5850 132.520 6 106 932 20.5925 132.520 ST 87 942 6 7
1993270N07153 1993 73 WP MM ED 1993-10-05 00:00:00 TS 20.8750 132.625 100 915 tokyo main 1113 1112 OOOO__________ jtwc_wp WP251993 20.8000 132.700 135 -1 20.9000 132.600 5 100 915 9 150 150 9 260 260 0 20.9000 132.600 6 106 930 20.9000 132.600 ST 85 945 6 13
1993270N07153 1993 73 WP MM ED 1993-10-05 03:00:00 TS 21.1952 132.710 main 1112 1081 PPPP__________ WP251993 21.0850 132.778 132 -1 21.2534 132.693 5 100 915 9 145 145 9 260 260 21.2500 132.685 6 106 930 21.1925 132.685 ST 82 947 7 16
1993270N07153 1993 73 WP MM ED 1993-10-05 06:00:00 TS 21.5250 132.825 100 915 tokyo main 1081 1050 OOOO__________ jtwc_wp WP251993 21.4000 132.900 130 -1 21.6000 132.800 5 100 915 9 140 140 9 260 260 0 21.6000 132.800 6 106 930 21.5000 132.800 T 80 950 7 19
1993270N07153 1993 73 WP MM ED 1993-10-05 09:00:00 TS 21.8425 132.953 100 920 tokyo main 1052 1011 POPP__________ WP251993 21.7350 133.043 125 -1 21.9000 132.900 5 100 920 9 140 140 9 260 260 0 21.9000 132.935 6 101 935 21.8350 132.935 T 77 952 7 23
1993270N07153 1993 73 WP MM ED 1993-10-05 12:00:00 TS 22.1750 133.125 95 925 tokyo main 1011 981 OOOO__________ jtwc_wp WP251993 22.1000 133.200 120 -1 22.2000 133.100 5 95 925 9 130 130 9 260 260 0 22.2000 133.100 5 97 940 22.2000 133.100 T 75 955 7 24
1993270N07153 1993 73 WP MM ED 1993-10-05 15:00:00 TS 22.5225 133.275 90 930 tokyo main 983 943 POPP__________ WP251993 22.4699 133.335 115 -1 22.5000 133.200 5 90 930 9 120 120 9 260 260 0 22.5274 133.278 5 92 945 22.5925 133.285 T 72 957 8 23
1993270N07153 1993 73 WP MM ED 1993-10-05 18:00:00 TS 22.9250 133.475 85 940 tokyo main 946 898 OOOO__________ jtwc_wp WP251993 22.9000 133.500 110 -1 22.9000 133.400 5 85 940 9 120 120 2 325 220 0 22.9000 133.500 5 87 950 23.0000 133.500 T 70 960 10 26
1993270N07153 1993 73 WP MM ED 1993-10-05 21:00:00 TS 23.3887 133.733 85 945 tokyo main 898 867 POPP__________ WP251993 23.4425 133.727 107 -1 23.4000 133.700 5 85 945 9 120 120 2 325 220 0 23.3275 133.785 5 87 950 23.3849 133.720 T 67 962 11 29
1993270N07153 1993 73 WP MM ED 1993-10-06 00:00:00 TS 23.8500 134.025 80 950 tokyo main 856 827 OOOO__________ jtwc_wp WP251993 24.0000 134.000 105 -1 23.8000 134.000 5 80 950 9 110 110 2 350 240 0 23.8000 134.100 5 87 950 23.8000 134.000 T 65 965 11 30
1993270N07153 1993 73 WP MM ED 1993-10-06 03:00:00 TS 24.3357 134.336 main 827 795 PPPP__________ WP251993 24.4573 134.263 102 -1 24.2931 134.326 5 80 950 9 110 110 2 400 295 24.3073 134.378 5 82 955 24.2851 134.377 T 65 965 12 32
1993270N07153 1993 73 WP MM ED 1993-10-06 06:00:00 TS 24.8250 134.700 80 950 tokyo main 795 772 OOOO__________ jtwc_wp WP251993 24.9000 134.600 100 -1 24.8000 134.700 5 80 950 9 110 110 8 450 350 0 24.8000 134.700 4 77 960 24.8000 134.800 T 65 965 12 38
1993270N07153 1993 73 WP MM ED 1993-10-06 09:00:00 TS 25.2486 135.117 main 777 751 PPPP__________ WP251993 25.3698 135.041 97 -1 25.1699 135.128 5 80 950 9 110 110 8 450 350 25.1700 135.121 4 77 960 25.2847 135.178 T 65 965 12 42
1993270N07153 1993 73 WP MM ED 1993-10-06 12:00:00 TS 25.7250 135.600 80 950 tokyo main 756 729 OOOO__________ jtwc_wp WP251993 25.9000 135.600 95 -1 25.6000 135.600 5 80 950 9 110 110 8 450 350 0 25.6000 135.600 4 77 960 25.8000 135.600 T 65 965 14 40
1993270N07153 1993 73 WP MM ED 1993-10-06 15:00:00 TS 26.3442 136.131 main 729 710 PPPP__________ WP251993 26.5276 136.270 92 -1 26.2473 136.078 5 77 952 9 110 110 8 450 325 26.2321 136.063 4 77 960 26.3699 136.113 T 62 967 17 37
1993270N07153 1993 73 WP MM ED 1993-10-06 18:00:00 TS 27.0500 136.725 75 955 tokyo main 702 651 OOOO__________ jtwc_wp WP251993 27.2000 137.000 90 -1 27.0000 136.600 5 75 955 9 110 110 8 450 300 0 27.0000 136.600 4 77 960 27.0000 136.700 STS 60 970 18 37
1993270N07153 1993 73 WP MM ED 1993-10-06 21:00:00 TS 27.7716 137.349 main 641 585 PPPP__________ WP251993 27.8345 137.694 87 -1 27.7325 137.146 5 72 960 9 105 105 8 400 325 27.8498 137.255 4 77 960 27.6693 137.299 STS 60 970 19 38
1993270N07153 1993 73 WP MM ED 1993-10-07 00:00:00 TS 28.5250 138.050 70 965 tokyo main 588 543 OOOO__________ jtwc_wp WP251993 28.5000 138.400 85 -1 28.5000 137.800 5 70 965 9 100 100 9 350 350 0 28.7000 138.000 4 77 960 28.4000 138.000 STS 60 970 20 41
1993270N07153 1993 73 WP MM ED 1993-10-07 03:00:00 TS 29.2836 138.844 70 965 tokyo main 538 518 POPP__________ WP251993 29.2268 139.121 80 -1 29.3000 138.600 5 70 965 9 100 100 9 350 350 0 29.4146 138.779 4 72 965 29.1929 138.877 STS 57 972 21 44
1993270N07153 1993 73 WP MM ED 1993-10-07 06:00:00 TS 30.0500 139.725 65 970 tokyo main 508 452 OOOO__________ jtwc_wp WP251993 30.0000 139.900 75 -1 30.1000 139.600 5 65 970 9 100 100 9 325 325 0 30.1000 139.600 4 68 970 30.0000 139.800 STS 55 975 21 44
1993270N07153 1993 73 WP MM ED 1993-10-07 09:00:00 TS 30.7991 140.536 60 975 tokyo main 452 400 POPP__________ WP251993 30.7915 140.742 70 -1 30.8000 140.400 4 60 975 9 90 90 9 300 300 0 30.8488 140.407 4 63 975 30.7563 140.595 STS 52 977 21 44
1993270N07153 1993 73 WP MM ED 1993-10-07 12:00:00 TS 31.5750 141.425 60 975 tokyo main 393 368 OOOO__________ jtwc_wp WP251993 31.6000 141.700 65 -1 31.6000 141.300 4 60 975 9 80 80 9 260 260 0 31.6000 141.300 3 58 980 31.5000 141.400 STS 50 980 22 47
1993270N07153 1993 73 WP MM ED 1993-10-07 15:00:00 TS 32.3157 142.433 60 975 tokyo main 370 361 POPP__________ WP251993 32.4220 142.798 60 -1 32.3000 142.300 4 60 975 9 80 80 9 260 260 0 32.2837 142.321 3 53 980 32.2569 142.314 STS 50 980 24 51
1993270N07153 1993 73 WP MM ED 1993-10-07 18:00:00 TS 33.0800 143.593 55 980 tokyo main 375 375 OOOO__________ jtwc_wp WP251993 33.2000 144.000 55 -1 33.1000 143.500 4 55 980 9 70 70 2 260 200 0 33.0000 143.500 3 48 980 33.0000 143.300 STS 50 980 26 53
1993270N07153 1993 73 WP MM ED 1993-10-07 21:00:00 TS 33.8609 144.887 55 980 tokyo main 415 415 POPP__________ WP251993 33.8787 145.222 55 -1 33.9000 144.900 4 55 980 9 60 60 2 240 200 0 33.8785 144.816 3 48 982 33.7118 144.334 STS 50 980 27 56
1993270N07153 1993 73 WP MM ED 1993-10-08 00:00:00 TS 34.6154 146.292 50 985 tokyo main 504 504 OOOO__________ jtwc_wp WP251993 34.5000 146.500 55 -1 34.7000 146.300 4 50 985 0 2 300 200 0 34.7000 146.300 3 48 985 34.4000 145.400 STS 50 980 28 62
1993270N07153 1993 73 WP MM ED 1993-10-08 03:00:00 TS 35.1874 147.893 main 634 634 PPP___________ WP251993 35.0902 147.801 52 -1 35.2415 147.930 4 50 985 0 2 300 200 35.2303 147.947 3 48 987 STS 28 67
1993270N07153 1993 73 WP MM ED 1993-10-08 06:00:00 TS 35.7000 149.467 50 985 tokyo main 765 765 OOO___________ jtwc_wp WP251993 35.7000 149.200 50 -1 35.7000 149.600 4 50 985 0 2 300 200 0 35.7000 149.600 3 48 990 27 66
1993270N07153 1993 73 WP MM ED 1993-10-08 09:00:00 TS 36.2935 150.950 main 847 847 PPP___________ WP251993 36.3394 150.767 50 -1 36.2705 151.042 4 986 0 2 36.2705 151.042 3 48 990 28 61
1993270N07153 1993 73 WP MM ED 1993-10-08 12:00:00 ET 37.0333 152.467 988 tokyo main 909 903 OOO___________ jtwc_wp WP251993 37.1000 152.400 50 -1 37.0000 152.500 6 988 0 0 0 37.0000 152.500 9 48 990 31 58
1993270N07153 1993 73 WP MM ED 1993-10-08 15:00:00 ET 37.9396 154.197 main 933 887 PPP___________ WP251993 37.9965 154.105 50 -1 37.9111 154.243 6 988 0 0 37.9111 154.243 9 43 989 33 53
1993270N07153 1993 73 WP MM ED 1993-10-08 18:00:00 ET 39.0300 155.880 988 tokyo main 892 852 OOO___________ jtwc_wp WP251993 39.1000 155.600 50 -1 39.0000 156.000 6 988 0 0 0 39.0000 156.000 9 38 988 33 46
1993270N07153 1993 73 WP MM ED 1993-10-08 21:00:00 ET 40.2287 157.287 main 857 826 PPP___________ WP251993 40.4335 156.637 50 -1 40.2186 157.556 6 988 0 0 40.1314 157.478 9 38 988 33 40
1993270N07153 1993 73 WP MM ED 1993-10-09 00:00:00 ET 41.5800 158.680 988 tokyo main 829 829 OOO___________ jtwc_wp WP251993 41.9000 157.400 50 -1 41.5000 159.000 6 988 0 0 0 41.5000 159.000 9 38 988 40 42
1993270N07153 1993 73 WP MM ED 1993-10-09 03:00:00 ET 43.1732 160.853 main 862 786 __P___________ WP251993 -1 6 0 0 43.1732 160.853 9 33 988 46 43
1993270N07153 1993 73 WP MM ED 1993-10-09 06:00:00 ET 45.0000 163.000 main 783 __O___________ -1 45.0000 163.000 9 29 988 48 40

デジタル台風データ・検索

IBTrACS Databaseについて

本データベースは、米国NOAAが公開する1842年以降の世界の熱帯低気圧のベストトラックデータアーカイブInternational Best Track Archive for Climate Stewardship (IBTrACS)を、ウェブで閲覧しやすい形式に変換したものです。

最終更新日:2021-12-06